sensor_id;sensor_type;location;lat;lon;timestamp;pressure;altitude;pressure_sealevel;temperature;humidity
53689;BME280;39583;54.682;30.662;2023-02-28T07:09:58;100386.19;;;-4.89;96.82
53689;BME280;39583;54.682;30.662;2023-02-28T07:12:24;100345.91;;;-5.02;95.53
53689;BME280;39583;54.682;30.662;2023-02-28T07:14:50;100404.19;;;-4.56;94.47
53689;BME280;39583;54.682;30.662;2023-02-28T07:17:16;100401.25;;;-4.51;93.14
53689;BME280;39583;54.682;30.662;2023-02-28T07:19:42;100387.69;;;-4.45;92.77
53689;BME280;39583;54.682;30.662;2023-02-28T07:22:08;100401.19;;;-4.37;91.98
53689;BME280;39583;54.682;30.662;2023-02-28T07:24:34;100398.06;;;-4.29;91.67
53689;BME280;39583;54.682;30.662;2023-02-28T07:27:00;100390.38;;;-4.20;91.65
53689;BME280;39583;54.682;30.662;2023-02-28T07:29:27;100382.09;;;-4.13;91.42
53689;BME280;39583;54.682;30.662;2023-02-28T07:31:53;100378.63;;;-4.01;91.56
53689;BME280;39583;54.682;30.662;2023-02-28T09:13:14;100227.88;;;-1.16;86.08
53689;BME280;39583;54.682;30.662;2023-02-28T09:15:40;100234.13;;;-0.64;85.40
53689;BME280;39583;54.682;30.662;2023-02-28T09:18:06;100228.53;;;-0.40;82.50
53689;BME280;39583;54.682;30.662;2023-02-28T09:20:32;100226.63;;;-0.28;82.03
53689;BME280;39583;54.682;30.662;2023-02-28T09:22:59;100225.78;;;-0.08;81.95
53689;BME280;39583;54.682;30.662;2023-02-28T09:25:25;100221.38;;;0.12;81.80
53689;BME280;39583;54.682;30.662;2023-02-28T09:27:51;100229.22;;;0.13;80.56
53689;BME280;39583;54.682;30.662;2023-02-28T09:30:18;100220.25;;;0.05;78.81
53689;BME280;39583;54.682;30.662;2023-02-28T09:32:43;100212.59;;;0.11;79.60
53689;BME280;39583;54.682;30.662;2023-02-28T09:35:18;100214.75;;;0.27;80.31
53689;BME280;39583;54.682;30.662;2023-02-28T09:37:44;100191.50;;;0.40;79.22
53689;BME280;39583;54.682;30.662;2023-02-28T09:40:12;100187.59;;;0.44;78.58
53689;BME280;39583;54.682;30.662;2023-02-28T09:42:38;100184.66;;;0.47;78.54
53689;BME280;39583;54.682;30.662;2023-02-28T09:47:50;100175.72;;;0.48;77.21
53689;BME280;39583;54.682;30.662;2023-02-28T09:52:53;100161.78;;;0.37;77.57
53689;BME280;39583;54.682;30.662;2023-02-28T09:55:37;100163.75;;;0.64;78.68
53689;BME280;39583;54.682;30.662;2023-02-28T09:58:14;100150.06;;;0.78;77.52
53689;BME280;39583;54.682;30.662;2023-02-28T10:00:43;100155.94;;;0.62;77.12
53689;BME280;39583;54.682;30.662;2023-02-28T10:06:28;100150.50;;;0.73;76.96
53689;BME280;39583;54.682;30.662;2023-02-28T10:09:06;100141.44;;;0.56;77.57
53689;BME280;39583;54.682;30.662;2023-02-28T10:11:36;100138.22;;;0.63;77.93
53689;BME280;39583;54.682;30.662;2023-02-28T10:19:12;100128.59;;;0.71;77.62
53689;BME280;39583;54.682;30.662;2023-02-28T10:21:46;100119.53;;;0.74;77.86
53689;BME280;39583;54.682;30.662;2023-02-28T10:24:25;100123.56;;;0.78;78.12
53689;BME280;39583;54.682;30.662;2023-02-28T10:26:59;100111.56;;;0.83;77.89
53689;BME280;39583;54.682;30.662;2023-02-28T10:29:27;100112.00;;;0.79;78.20
53689;BME280;39583;54.682;30.662;2023-02-28T10:31:55;100111.03;;;0.80;78.21
53689;BME280;39583;54.682;30.662;2023-02-28T10:34:21;100094.84;;;0.83;78.69
53689;BME280;39583;54.682;30.662;2023-02-28T10:36:49;100097.88;;;0.88;78.65
53689;BME280;39583;54.682;30.662;2023-02-28T10:39:39;100089.63;;;0.91;77.93
53689;BME280;39583;54.682;30.662;2023-02-28T10:42:20;100078.78;;;0.94;78.21
53689;BME280;39583;54.682;30.662;2023-02-28T10:44:46;100087.66;;;1.03;78.79
53689;BME280;39583;54.682;30.662;2023-02-28T10:47:19;100063.31;;;1.17;78.46
53689;BME280;39583;54.682;30.662;2023-02-28T10:49:48;100073.84;;;1.09;77.80
53689;BME280;39583;54.682;30.662;2023-02-28T10:52:33;100071.88;;;1.11;79.20
53689;BME280;39583;54.682;30.662;2023-02-28T10:57:46;100057.06;;;1.18;78.52
53689;BME280;39583;54.682;30.662;2023-02-28T11:00:19;100037.22;;;1.22;77.76
53689;BME280;39583;54.682;30.662;2023-02-28T11:02:45;100042.41;;;1.14;77.18
53689;BME280;39583;54.682;30.662;2023-02-28T11:05:32;100035.78;;;1.28;78.51
53689;BME280;39583;54.682;30.662;2023-02-28T11:08:11;100036.94;;;1.25;77.94
53689;BME280;39583;54.682;30.662;2023-02-28T11:10:38;100048.34;;;1.35;78.50
53689;BME280;39583;54.682;30.662;2023-02-28T11:13:05;100004.28;;;1.42;77.71
53689;BME280;39583;54.682;30.662;2023-02-28T11:15:33;100002.06;;;1.47;77.24
53689;BME280;39583;54.682;30.662;2023-02-28T11:20:48;100004.16;;;1.71;76.40
53689;BME280;39583;54.682;30.662;2023-02-28T11:23:16;99988.16;;;1.99;77.25
53689;BME280;39583;54.682;30.662;2023-02-28T11:25:47;99973.34;;;2.14;76.38
53689;BME280;39583;54.682;30.662;2023-02-28T11:28:31;99995.28;;;2.16;75.78
53689;BME280;39583;54.682;30.662;2023-02-28T11:36:27;99980.91;;;1.56;75.03
53689;BME280;39583;54.682;30.662;2023-02-28T11:38:58;99937.28;;;1.40;75.62
53689;BME280;39583;54.682;30.662;2023-02-28T11:44:27;99944.88;;;1.35;76.98
53689;BME280;39583;54.682;30.662;2023-02-28T11:47:08;99948.25;;;1.28;76.22
53689;BME280;39583;54.682;30.662;2023-02-28T11:49:50;99946.28;;;1.30;76.73
53689;BME280;39583;54.682;30.662;2023-02-28T11:55:19;99954.34;;;1.10;76.96
53689;BME280;39583;54.682;30.662;2023-02-28T11:58:31;99940.09;;;1.11;77.41
53689;BME280;39583;54.682;30.662;2023-02-28T12:06:18;99950.34;;;1.52;78.03
53689;BME280;39583;54.682;30.662;2023-02-28T12:09:04;99944.97;;;1.61;78.10
53689;BME280;39583;54.682;30.662;2023-02-28T12:11:53;99940.72;;;1.68;77.42
53689;BME280;39583;54.682;30.662;2023-02-28T12:28:34;99907.91;;;1.69;77.03
53689;BME280;39583;54.682;30.662;2023-02-28T12:31:11;99906.50;;;1.65;77.86
53689;BME280;39583;54.682;30.662;2023-02-28T12:33:53;99897.97;;;1.71;77.88
53689;BME280;39583;54.682;30.662;2023-02-28T12:36:22;99907.44;;;1.74;78.15
53689;BME280;39583;54.682;30.662;2023-02-28T12:41:41;99890.81;;;1.72;77.83
53689;BME280;39583;54.682;30.662;2023-02-28T12:44:16;99902.28;;;1.72;77.70
53689;BME280;39583;54.682;30.662;2023-02-28T12:46:49;99901.44;;;1.72;77.89
53689;BME280;39583;54.682;30.662;2023-02-28T12:49:45;99882.47;;;1.67;78.68
53689;BME280;39583;54.682;30.662;2023-02-28T12:52:16;99885.75;;;1.61;78.38
53689;BME280;39583;54.682;30.662;2023-02-28T12:55:03;99844.34;;;1.50;78.21
53689;BME280;39583;54.682;30.662;2023-02-28T13:00:25;99869.88;;;1.69;78.49
53689;BME280;39583;54.682;30.662;2023-02-28T13:08:59;99851.03;;;1.98;77.98
53689;BME280;39583;54.682;30.662;2023-02-28T13:11:50;99846.19;;;1.93;78.11
53689;BME280;39583;54.682;30.662;2023-02-28T13:19:44;99851.50;;;1.93;79.62
53689;BME280;39583;54.682;30.662;2023-02-28T13:25:00;99840.44;;;1.80;79.41
53689;BME280;39583;54.682;30.662;2023-02-28T13:27:36;99847.22;;;1.74;79.69
53689;BME280;39583;54.682;30.662;2023-02-28T13:33:36;99833.66;;;1.60;80.43
53689;BME280;39583;54.682;30.662;2023-02-28T13:38:48;99826.13;;;1.55;80.78
53689;BME280;39583;54.682;30.662;2023-02-28T13:44:11;99860.72;;;1.45;81.48
53689;BME280;39583;54.682;30.662;2023-02-28T13:51:48;99858.97;;;1.36;81.91
53689;BME280;39583;54.682;30.662;2023-02-28T13:57:40;99879.69;;;1.33;81.98
53689;BME280;39583;54.682;30.662;2023-02-28T14:05:15;99878.44;;;1.27;82.85
53689;BME280;39583;54.682;30.662;2023-02-28T14:07:50;99870.31;;;1.29;83.12
53689;BME280;39583;54.682;30.662;2023-02-28T14:10:34;99858.88;;;1.28;83.20
53689;BME280;39583;54.682;30.662;2023-02-28T14:16:02;99858.66;;;1.22;83.21
53689;BME280;39583;54.682;30.662;2023-02-28T14:21:11;99854.94;;;1.14;83.77
53689;BME280;39583;54.682;30.662;2023-02-28T14:34:42;99844.16;;;0.98;84.51
53689;BME280;39583;54.682;30.662;2023-02-28T14:37:15;99843.84;;;1.01;84.62
53689;BME280;39583;54.682;30.662;2023-02-28T14:39:43;99844.16;;;0.98;84.74
53689;BME280;39583;54.682;30.662;2023-02-28T14:42:28;99846.13;;;0.96;85.46
53689;BME280;39583;54.682;30.662;2023-02-28T14:44:55;99828.56;;;0.95;85.36
53689;BME280;39583;54.682;30.662;2023-02-28T14:47:35;99829.53;;;0.94;85.71
53689;BME280;39583;54.682;30.662;2023-02-28T14:50:03;99832.88;;;0.96;85.70
53689;BME280;39583;54.682;30.662;2023-02-28T14:52:31;99826.88;;;0.94;85.68
53689;BME280;39583;54.682;30.662;2023-02-28T14:55:14;99838.19;;;0.96;86.06
53689;BME280;39583;54.682;30.662;2023-02-28T14:57:51;99839.84;;;0.97;86.51
53689;BME280;39583;54.682;30.662;2023-02-28T15:00:22;99843.16;;;0.99;86.07
53689;BME280;39583;54.682;30.662;2023-02-28T15:02:48;99849.63;;;0.97;86.10
53689;BME280;39583;54.682;30.662;2023-02-28T15:07:45;99856.59;;;0.98;86.13
53689;BME280;39583;54.682;30.662;2023-02-28T15:10:24;99851.75;;;0.93;86.55
53689;BME280;39583;54.682;30.662;2023-02-28T15:13:09;99839.59;;;0.91;86.78
53689;BME280;39583;54.682;30.662;2023-02-28T15:15:54;99844.06;;;0.90;86.99
53689;BME280;39583;54.682;30.662;2023-02-28T15:20:55;99828.91;;;0.82;87.61
53689;BME280;39583;54.682;30.662;2023-02-28T15:23:22;99829.75;;;0.83;87.76
53689;BME280;39583;54.682;30.662;2023-02-28T15:25:49;99829.06;;;0.81;87.62
53689;BME280;39583;54.682;30.662;2023-02-28T15:28:19;99817.63;;;0.80;87.77
53689;BME280;39583;54.682;30.662;2023-02-28T15:30:55;99822.38;;;0.77;88.24
53689;BME280;39583;54.682;30.662;2023-02-28T15:33:30;99811.53;;;0.70;88.34
53689;BME280;39583;54.682;30.662;2023-02-28T15:36:13;99807.59;;;0.74;88.88
53689;BME280;39583;54.682;30.662;2023-02-28T15:38:42;99816.22;;;0.76;88.82
53689;BME280;39583;54.682;30.662;2023-02-28T15:41:22;99810.09;;;0.76;88.97
53689;BME280;39583;54.682;30.662;2023-02-28T15:47:05;99815.56;;;0.74;89.56
53689;BME280;39583;54.682;30.662;2023-02-28T15:49:40;99796.00;;;0.75;89.66
53689;BME280;39583;54.682;30.662;2023-02-28T15:52:19;99805.47;;;0.78;89.97
53689;BME280;39583;54.682;30.662;2023-02-28T15:54:47;99801.03;;;0.78;89.96
53689;BME280;39583;54.682;30.662;2023-02-28T15:57:18;99804.38;;;0.80;90.24
53689;BME280;39583;54.682;30.662;2023-02-28T15:59:55;99802.72;;;0.79;90.01
53689;BME280;39583;54.682;30.662;2023-02-28T16:02:31;99791.81;;;0.82;90.37
53689;BME280;39583;54.682;30.662;2023-02-28T16:07:37;99789.16;;;0.82;90.46
53689;BME280;39583;54.682;30.662;2023-02-28T16:10:07;99778.53;;;0.82;91.07
53689;BME280;39583;54.682;30.662;2023-02-28T16:12:36;99778.41;;;0.84;90.86
53689;BME280;39583;54.682;30.662;2023-02-28T16:15:09;99773.09;;;0.84;91.18
53689;BME280;39583;54.682;30.662;2023-02-28T16:17:43;99761.19;;;0.88;91.32
53689;BME280;39583;54.682;30.662;2023-02-28T16:20:25;99763.69;;;0.89;91.01
53689;BME280;39583;54.682;30.662;2023-02-28T16:22:52;99748.94;;;0.87;91.61
53689;BME280;39583;54.682;30.662;2023-02-28T16:25:39;99752.94;;;0.91;91.31
53689;BME280;39583;54.682;30.662;2023-02-28T16:28:18;99752.66;;;0.94;91.65
53689;BME280;39583;54.682;30.662;2023-02-28T16:30:45;99752.50;;;0.96;91.41
53689;BME280;39583;54.682;30.662;2023-02-28T16:33:12;99740.91;;;0.97;91.54
53689;BME280;39583;54.682;30.662;2023-02-28T16:35:38;99738.09;;;0.98;91.85
53689;BME280;39583;54.682;30.662;2023-02-28T16:38:04;99721.88;;;1.01;91.63
53689;BME280;39583;54.682;30.662;2023-02-28T16:40:34;99732.50;;;1.01;91.73
53689;BME280;39583;54.682;30.662;2023-02-28T16:43:05;99726.19;;;1.02;91.76
53689;BME280;39583;54.682;30.662;2023-02-28T16:45:33;99722.44;;;1.05;91.88
53689;BME280;39583;54.682;30.662;2023-02-28T16:47:59;99722.28;;;1.06;92.00
53689;BME280;39583;54.682;30.662;2023-02-28T16:50:30;99712.66;;;1.05;92.08
53689;BME280;39583;54.682;30.662;2023-02-28T16:52:59;99697.25;;;1.09;91.85
53689;BME280;39583;54.682;30.662;2023-02-28T16:55:26;99693.47;;;1.11;92.17
53689;BME280;39583;54.682;30.662;2023-02-28T16:57:56;99700.28;;;1.14;91.96
53689;BME280;39583;54.682;30.662;2023-02-28T17:00:24;99695.81;;;1.14;92.20
53689;BME280;39583;54.682;30.662;2023-02-28T17:02:51;99696.63;;;1.15;92.29
53689;BME280;39583;54.682;30.662;2023-02-28T17:05:17;99693.00;;;1.16;92.08
53689;BME280;39583;54.682;30.662;2023-02-28T17:07:45;99696.19;;;1.20;92.25
53689;BME280;39583;54.682;30.662;2023-02-28T17:10:23;99678.31;;;1.22;92.56
53689;BME280;39583;54.682;30.662;2023-02-28T17:12:50;99687.25;;;1.21;92.47
53689;BME280;39583;54.682;30.662;2023-02-28T17:15:18;99689.44;;;1.25;92.21
53689;BME280;39583;54.682;30.662;2023-02-28T17:17:46;99683.13;;;1.26;92.48
53689;BME280;39583;54.682;30.662;2023-02-28T17:20:14;99666.53;;;1.24;92.25
53689;BME280;39583;54.682;30.662;2023-02-28T17:22:41;99671.53;;;1.27;92.66
53689;BME280;39583;54.682;30.662;2023-02-28T17:25:09;99672.22;;;1.29;92.35
53689;BME280;39583;54.682;30.662;2023-02-28T17:27:36;99659.78;;;1.30;92.53
53689;BME280;39583;54.682;30.662;2023-02-28T17:30:13;99653.19;;;1.34;92.48
53689;BME280;39583;54.682;30.662;2023-02-28T17:32:40;99659.31;;;1.34;92.49
53689;BME280;39583;54.682;30.662;2023-02-28T17:35:07;99664.31;;;1.37;92.53
53689;BME280;39583;54.682;30.662;2023-02-28T17:37:33;99673.25;;;1.36;92.34
53689;BME280;39583;54.682;30.662;2023-02-28T17:40:00;99657.84;;;1.40;92.30
53689;BME280;39583;54.682;30.662;2023-02-28T17:42:27;99658.03;;;1.38;92.48
53689;BME280;39583;54.682;30.662;2023-02-28T17:44:55;99662.34;;;1.39;92.41
53689;BME280;39583;54.682;30.662;2023-02-28T17:47:23;99654.53;;;1.38;92.29
53689;BME280;39583;54.682;30.662;2023-02-28T17:49:50;99663.31;;;1.38;92.37
53689;BME280;39583;54.682;30.662;2023-02-28T17:52:16;99649.56;;;1.43;92.79
53689;BME280;39583;54.682;30.662;2023-02-28T17:54:44;99649.44;;;1.44;92.50
53689;BME280;39583;54.682;30.662;2023-02-28T17:57:14;99653.59;;;1.47;92.74
53689;BME280;39583;54.682;30.662;2023-02-28T17:59:41;99642.84;;;1.48;92.53
53689;BME280;39583;54.682;30.662;2023-02-28T18:02:09;99648.81;;;1.51;92.56
53689;BME280;39583;54.682;30.662;2023-02-28T18:04:37;99638.19;;;1.51;92.43
53689;BME280;39583;54.682;30.662;2023-02-28T18:07:03;99639.69;;;1.53;92.65
53689;BME280;39583;54.682;30.662;2023-02-28T18:09:31;99637.03;;;1.53;92.73
53689;BME280;39583;54.682;30.662;2023-02-28T18:11:57;99633.41;;;1.54;92.59
53689;BME280;39583;54.682;30.662;2023-02-28T18:14:24;99635.88;;;1.56;92.70
53689;BME280;39583;54.682;30.662;2023-02-28T18:16:52;99639.25;;;1.58;92.78
53689;BME280;39583;54.682;30.662;2023-02-28T18:19:19;99648.03;;;1.58;92.33
53689;BME280;39583;54.682;30.662;2023-02-28T18:21:51;99621.34;;;1.60;92.49
53689;BME280;39583;54.682;30.662;2023-02-28T18:24:19;99618.50;;;1.61;92.62
53689;BME280;39583;54.682;30.662;2023-02-28T18:26:46;99619.34;;;1.62;92.68
53689;BME280;39583;54.682;30.662;2023-02-28T18:29:19;99624.66;;;1.62;92.57
53689;BME280;39583;54.682;30.662;2023-02-28T18:31:47;99621.16;;;1.61;92.66
53689;BME280;39583;54.682;30.662;2023-02-28T18:34:14;99611.03;;;1.57;92.50
53689;BME280;39583;54.682;30.662;2023-02-28T18:36:40;99609.88;;;1.59;92.48
53689;BME280;39583;54.682;30.662;2023-02-28T18:39:08;99611.16;;;1.55;92.29
53689;BME280;39583;54.682;30.662;2023-02-28T18:41:38;99612.50;;;1.51;92.09
